Time;durP1;ratioP1;P1;durP2;ratioP2;P2;SDS_P1;SDS_P2;PMS_P1;PMS_P2;Temp;Humidity;BMP_temperature;BMP_pressure;BME280_temperature;BME280_humidity;BME280_pressure;Samples;Min_cycle;Max_cycle;Signal;HPM_P1;HPM_P2
2022/07/04 16:34:39;;;;;;;5.40;4.22;;;38.20;37.00;;;26.74;57.76;95726.81;5086639;27;20322;-48
2022/07/04 16:37:05;;;;;;;6.07;4.55;;;39.40;35.40;;;27.24;54.38;95732.31;5064698;28;20040;-48
2022/07/04 16:39:31;;;;;;;4.80;4.20;;;40.70;33.20;;;27.76;51.45;95736.13;5065178;28;20523;-55
2022/07/04 16:41:57;;;;;;;6.35;4.93;;;41.80;31.10;;;28.42;51.03;95742.03;5064253;28;20020;-53
2022/07/04 16:44:23;;;;;;;4.35;3.40;;;42.70;29.80;;;28.79;49.02;95749.41;5066321;28;20426;-50
2022/07/04 16:46:49;;;;;;;5.68;3.10;;;43.20;28.90;;;28.75;48.72;95754.88;5048406;28;20028;-49
2022/07/04 16:49:16;;;;;;;3.40;3.10;;;42.30;29.10;;;28.46;51.01;95755.78;5066310;28;20047;-51
2022/07/04 16:51:42;;;;;;;5.00;3.22;;;40.80;30.10;;;28.03;48.99;95752.53;5031444;28;20039;-50
2022/07/04 16:54:08;;;;;;;3.33;3.00;;;39.20;31.10;;;27.58;54.88;95759.75;5054467;28;20032;-49
2022/07/04 16:56:36;;;;;;;3.90;3.20;;;37.70;33.30;;;26.84;53.97;95763.69;5047584;28;20107;-50
2022/07/04 16:59:04;;;;;;;4.07;2.60;;;36.30;34.60;;;26.37;55.16;95764.00;5048041;28;20122;-48
2022/07/04 17:01:30;;;;;;;4.00;2.70;;;35.10;35.90;;;25.99;56.09;95763.66;5065447;28;20032;-48
2022/07/04 17:03:59;;;;;;;3.72;2.65;;;34.20;37.00;;;25.75;56.32;95763.91;5046785;28;20040;-48
2022/07/04 17:06:25;;;;;;;2.90;2.40;;;34.20;37.40;;;25.79;57.17;95772.94;5047704;28;20028;-48
2022/07/04 17:08:53;;;;;;;2.92;2.47;;;34.10;37.60;;;25.55;59.06;95772.06;5060512;28;20036;-50
2022/07/04 17:11:24;;;;;;;3.78;2.70;;;33.60;38.40;;;25.35;58.03;95784.06;5065579;28;20024;-49
2022/07/04 17:13:52;;;;;;;4.35;2.40;;;33.00;39.40;;;25.12;61.00;95786.63;5064489;28;20028;-52
2022/07/04 17:16:21;;;;;;;3.53;2.13;;;32.70;39.90;;;24.98;61.58;95787.09;5063969;28;20024;-54
2022/07/04 17:18:48;;;;;;;3.85;2.50;;;32.40;40.40;;;24.74;61.42;95795.41;5046292;28;20394;-48
2022/07/04 17:21:14;;;;;;;2.63;2.20;;;32.00;41.00;;;24.52;63.42;95799.53;5059203;28;20024;-48
2022/07/04 17:23:40;;;;;;;2.53;2.15;;;31.40;42.00;;;24.35;63.21;95793.22;5044660;28;20381;-51
2022/07/04 17:26:05;;;;;;;5.20;2.08;;;31.00;43.00;;;24.10;60.15;95794.44;5046097;28;20024;-50
2022/07/04 17:28:31;;;;;;;2.97;1.90;;;30.40;43.20;;;23.82;61.61;95797.97;5059760;28;20100;-47
2022/07/04 17:30:57;;;;;;;3.67;2.00;;;29.90;43.60;;;23.67;64.23;95802.16;5064933;28;20016;-49
2022/07/04 17:33:24;;;;;;;3.65;2.08;;;29.50;44.70;;;23.55;65.93;95792.09;5048030;28;20047;-53
2022/07/04 17:35:50;;;;;;;2.60;1.77;;;29.20;45.60;;;23.42;66.00;95795.97;5039328;28;20498;-48
2022/07/04 17:38:16;;;;;;;3.88;2.42;;;28.90;46.30;;;23.23;66.93;95793.84;5047880;28;20150;-52
2022/07/04 17:43:32;;;;;;;3.10;2.15;;;28.50;47.50;;;22.91;67.62;95783.81;5025090;28;20122;-49
2022/07/04 17:46:01;;;;;;;2.75;1.65;;;28.30;47.60;;;22.69;65.37;95782.31;5016457;28;20033;-50
2022/07/04 17:48:26;;;;;;;2.22;1.77;;;28.20;47.70;;;22.53;65.53;95798.47;5009723;28;20036;-49
2022/07/04 17:50:52;;;;;;;8.32;1.73;;;28.00;47.60;;;22.49;68.24;95794.84;5026627;28;20021;-48
2022/07/04 17:53:18;;;;;;;3.58;2.03;;;27.90;48.20;;;22.48;68.29;95794.06;5010100;28;20549;-51
2022/07/04 17:55:50;;;;;;;2.35;2.00;;;27.70;48.60;;;22.37;69.11;95795.59;4993839;28;20029;-51
2022/07/04 17:58:19;;;;;;;4.70;1.80;;;27.40;49.40;;;22.20;68.41;95795.78;5012052;28;20178;-50
2022/07/04 18:00:48;;;;;;;3.03;1.60;;;27.20;49.60;;;21.98;68.68;95784.13;5010871;28;20374;-52
2022/07/04 18:03:16;;;;;;;3.67;1.50;;;26.90;49.80;;;21.82;68.21;95775.03;5027144;28;20111;-51
2022/07/04 18:05:45;;;;;;;3.28;1.70;;;26.60;50.20;;;21.70;67.23;95775.75;5030204;28;20120;-51
2022/07/04 18:08:11;;;;;;;2.88;1.60;;;26.40;50.40;;;21.60;69.96;95771.53;5030466;28;20112;-47
2022/07/04 18:10:37;;;;;;;3.15;1.67;;;26.20;50.70;;;21.41;67.99;95776.63;5030679;28;20107;-48
2022/07/04 18:13:05;;;;;;;1.58;1.40;;;26.00;50.70;;;21.22;71.13;95775.09;5025271;28;20488;-50
2022/07/04 18:15:31;;;;;;;1.92;1.50;;;25.80;51.30;;;21.10;71.60;95766.88;5017214;28;20044;-47
2022/07/04 18:17:59;;;;;;;1.63;1.42;;;25.60;51.80;;;20.90;71.51;95771.13;5011632;28;20748;-48
2022/07/04 18:20:27;;;;;;;3.58;1.60;;;25.50;52.10;;;20.71;71.72;95757.19;5011125;28;20021;-47
2022/07/04 18:22:56;;;;;;;3.47;1.50;;;25.30;52.20;;;20.63;73.11;95761.53;5041454;28;20116;-51
2022/07/04 18:25:24;;;;;;;2.92;1.30;;;25.10;52.60;;;20.52;71.26;95757.56;5011640;28;20021;-47
2022/07/04 18:27:50;;;;;;;4.03;1.45;;;25.10;52.70;;;20.40;73.87;95757.44;5015536;28;20051;-47
2022/07/04 18:30:16;;;;;;;8.75;1.85;;;25.00;53.10;;;20.27;75.84;95765.41;5007990;28;20435;-47
2022/07/04 18:32:43;;;;;;;3.45;1.30;;;24.80;53.60;;;20.15;74.25;95773.41;5010769;28;20045;-49
2022/07/04 18:35:09;;;;;;;4.43;1.30;;;24.70;53.80;;;20.03;75.76;95770.56;5017997;28;20559;-47
2022/07/04 18:37:38;;;;;;;6.63;1.55;;;24.50;54.20;;;19.87;76.64;95767.56;5036507;28;20190;-49
2022/07/04 18:43:23;;;;;;;3.00;1.50;;;24.40;54.60;;;19.78;76.38;95758.66;5022731;28;20416;-49
2022/07/04 18:45:40;;;;;;;1.75;1.63;;;24.10;54.70;;;19.61;76.87;95781.81;5021148;28;20067;-46
2022/07/04 18:48:07;;;;;;;1.90;1.48;;;24.00;55.10;;;19.55;77.02;95785.78;5026832;28;20108;-49
2022/07/04 18:50:34;;;;;;;1.98;1.65;;;23.90;55.50;;;19.45;77.12;95778.00;5022126;28;20017;-46
2022/07/04 18:53:03;;;;;;;3.20;1.42;;;23.80;55.80;;;19.34;77.82;95785.63;5030377;28;20035;-46
2022/07/04 18:55:29;;;;;;;2.95;1.38;;;23.70;56.10;;;19.21;78.40;95781.16;5031508;28;20021;-48
2022/07/04 18:57:58;;;;;;;3.05;1.33;;;23.50;56.20;;;19.02;78.03;95773.31;5029168;28;20020;-46
2022/07/04 19:00:26;;;;;;;2.50;1.50;;;23.40;56.60;;;18.89;77.12;95776.91;5028522;28;20032;-47
2022/07/04 19:02:52;;;;;;;1.35;1.25;;;23.30;56.60;;;18.85;77.23;95773.25;5017932;28;20429;-49
2022/07/04 19:05:21;;;;;;;1.63;1.30;;;23.10;56.80;;;18.82;78.72;95779.28;5015473;28;20029;-49
2022/07/04 19:07:47;;;;;;;1.70;1.60;;;23.00;57.10;;;18.75;78.87;95771.63;5010364;28;20040;-46
2022/07/04 19:10:13;;;;;;;2.00;1.40;;;22.90;57.40;;;18.65;79.74;95788.88;5014331;28;20033;-49
2022/07/04 19:12:48;;;;;;;2.85;1.40;;;22.80;57.70;;;18.56;80.29;95784.53;5010129;28;20036;-47
2022/07/04 19:15:14;;;;;;;4.40;1.98;;;22.70;58.20;;;18.44;81.53;95787.81;4992981;28;20140;-50
2022/07/04 19:17:41;;;;;;;2.33;1.88;;;22.60;58.30;;;18.35;82.11;95781.56;5008602;28;20094;-47
2022/07/04 19:20:08;;;;;;;3.83;1.50;;;22.50;58.60;;;18.23;81.67;95782.13;5022882;28;20492;-51
2022/07/04 19:22:35;;;;;;;4.30;1.65;;;22.40;58.80;;;18.13;81.64;95795.88;5010264;28;20116;-48
2022/07/04 19:25:08;;;;;;;3.55;1.65;;;22.20;58.90;;;18.08;81.48;95804.06;5027195;28;20130;-46
2022/07/04 19:27:35;;;;;;;2.83;1.20;;;22.20;59.30;;;18.02;80.37;95809.59;5019239;28;20070;-50
2022/07/04 19:30:03;;;;;;;4.32;1.40;;;22.10;59.10;;;17.99;80.43;95812.13;5007396;28;20068;-52
2022/07/04 19:32:30;;;;;;;3.75;1.40;;;22.00;59.10;;;18.02;81.06;95812.31;5038772;28;20025;-47
2022/07/04 19:34:57;;;;;;;3.17;1.65;;;22.00;59.40;;;18.02;82.08;95812.31;5024475;28;20518;-44
2022/07/04 19:37:23;;;;;;;4.75;1.80;;;21.90;59.60;;;17.99;82.82;95820.22;5016647;28;20032;-52
2022/07/04 19:39:50;;;;;;;2.40;1.50;;;21.90;59.90;;;17.91;82.54;95823.63;5028925;28;20031;-47
2022/07/04 19:42:23;;;;;;;4.75;1.40;;;21.80;60.00;;;17.84;83.12;95818.66;5016689;28;20032;-48
2022/07/04 19:44:52;;;;;;;6.82;1.42;;;21.70;60.40;;;17.78;82.78;95822.56;5045847;28;20135;-47
2022/07/04 19:47:25;;;;;;;1.67;1.50;;;21.70;60.40;;;17.68;82.64;95834.34;5015009;28;20058;-55
2022/07/04 19:49:58;;;;;;;3.70;1.70;;;21.60;60.60;;;17.64;82.70;95838.72;5048169;28;20031;-47
2022/07/04 19:52:28;;;;;;;;;;;21.50;60.80;;;17.58;83.82;95842.66;5020376;28;20025;-47
2022/07/04 19:55:11;;;;;;;4.75;1.67;;;21.50;60.00;;;17.52;83.31;95841.16;5046614;28;19908;-48
2022/07/04 19:57:40;;;;;;;;;;;21.40;60.70;;;17.47;83.32;95843.97;5031245;28;20020;-48
2022/07/04 20:00:10;;;;;;;4.78;1.30;;;21.40;59.90;;;17.41;83.53;95843.25;5049415;28;20359;-47
2022/07/04 20:02:38;;;;;;;4.47;1.17;;;21.30;60.50;;;17.39;83.73;95844.66;5035202;28;20033;-52
2022/07/04 20:05:13;;;;;;;1.08;0.98;;;21.30;60.90;;;17.32;85.24;95842.38;5029398;28;20074;-47
2022/07/04 20:07:49;;;;;;;2.92;1.20;;;21.20;61.40;;;17.25;85.69;95839.28;5024422;28;20695;-45
2022/07/04 20:10:18;;;;;;;4.28;1.23;;;21.20;61.70;;;17.15;86.08;95832.22;5020426;28;20025;-46
2022/07/04 20:12:45;;;;;;;1.58;1.48;;;21.10;62.70;;;17.11;85.61;95831.25;5014566;28;20037;-49
2022/07/04 20:15:14;;;;;;;2.50;1.50;;;21.10;62.00;;;17.09;85.87;95836.13;4985697;28;20525;-46
2022/07/04 20:17:43;;;;;;;6.53;1.42;;;21.00;62.10;;;17.04;86.78;95838.91;5011068;28;20050;-46
2022/07/04 20:20:14;;;;;;;5.53;1.83;;;20.90;62.30;;;17.02;86.54;95830.34;5034755;28;20115;-47
2022/07/04 20:22:43;;;;;;;3.05;1.50;;;20.90;62.70;;;16.94;87.25;95841.78;5015814;28;20027;-48
2022/07/04 20:25:14;;;;;;;2.55;1.45;;;20.80;62.90;;;16.87;88.03;95837.59;5031309;28;20357;-47
2022/07/04 20:27:47;;;;;;;4.63;1.80;;;20.80;63.30;;;16.85;88.19;95837.09;5049631;28;20028;-45
2022/07/04 20:30:14;;;;;;;8.52;1.80;;;20.70;63.40;;;16.82;88.32;95836.91;5028979;28;20369;-45
2022/07/04 20:32:47;;;;;;;1.85;1.55;;;20.60;63.60;;;16.77;88.68;95839.69;5023455;28;20036;-45
2022/07/04 20:35:16;;;;;;;4.78;1.60;;;20.60;64.20;;;16.74;87.89;95837.56;5013437;28;20025;-49
2022/07/04 20:37:46;;;;;;;4.05;2.00;;;20.60;64.30;;;16.68;88.97;95844.13;5042593;28;20077;-46
2022/07/04 20:40:15;;;;;;;4.25;1.60;;;20.50;64.50;;;16.65;89.11;95842.84;5032296;28;20039;-53
2022/07/04 20:42:56;;;;;;;6.15;1.65;;;20.50;64.60;;;16.62;89.12;95846.91;5019219;28;20442;-46
2022/07/04 20:45:24;;;;;;;4.00;1.30;;;20.50;64.80;;;16.60;89.22;95843.69;5012287;28;20467;-47
2022/07/04 20:47:56;;;;;;;5.90;1.60;;;20.50;64.90;;;16.58;89.36;95851.28;5029784;28;20282;-46
2022/07/04 20:50:22;;;;;;;9.10;1.83;;;20.50;65.10;;;16.56;89.53;95852.66;5019050;28;20044;-51
2022/07/04 20:53:00;;;;;;;7.70;1.73;;;20.40;64.90;;;16.53;89.56;95856.75;5046628;28;20036;-49
2022/07/04 20:55:26;;;;;;;2.22;1.83;;;20.40;65.40;;;16.53;89.90;95848.69;5031992;28;20071;-45
2022/07/04 20:57:52;;;;;;;6.25;1.58;;;20.40;65.20;;;16.48;90.38;95851.44;5031561;28;20483;-48
2022/07/04 21:00:29;;;;;;;2.55;1.40;;;20.40;65.70;;;16.49;90.26;95850.38;5020906;28;20094;-46
2022/07/04 21:02:57;;;;;;;4.90;1.38;;;20.40;65.80;;;16.49;89.77;95858.44;5048132;28;20017;-49
2022/07/04 21:05:25;;;;;;;6.68;1.35;;;20.40;65.50;;;16.47;89.20;95857.91;5036575;28;20539;-45
2022/07/04 21:07:53;;;;;;;1.63;1.15;;;20.30;65.50;;;16.42;88.95;95866.88;5012439;28;20437;-47
2022/07/04 21:10:25;;;;;;;4.07;1.30;;;20.30;65.60;;;16.42;89.31;95864.19;5043325;28;20027;-47
2022/07/04 21:12:52;;;;;;;8.88;1.55;;;20.30;65.90;;;16.43;89.33;95859.63;5049840;28;20391;-46
2022/07/04 21:15:19;;;;;;;6.22;1.45;;;20.30;65.60;;;16.43;89.74;95860.41;5012044;28;20449;-46
2022/07/04 21:17:48;;;;;;;6.65;1.73;;;20.30;65.80;;;16.43;89.63;95867.69;5017167;28;20024;-46
2022/07/04 21:20:24;;;;;;;6.13;1.30;;;20.30;66.00;;;16.44;89.36;95866.56;5029198;28;20073;-46
2022/07/04 21:22:52;;;;;;;6.25;1.40;;;20.30;66.10;;;16.44;89.70;95866.56;5034727;28;20048;-48
2022/07/04 21:25:28;;;;;;;8.32;1.60;;;20.30;66.10;;;16.39;90.44;95864.00;5035509;28;20483;-47
2022/07/04 21:27:56;;;;;;;2.58;1.10;;;20.30;66.40;;;16.39;89.37;95867.47;5034999;28;20032;-49
2022/07/04 21:30:28;;;;;;;13.82;1.40;;;20.30;66.20;;;16.41;89.81;95859.91;5052215;28;20036;-48
2022/07/04 21:32:54;;;;;;;6.17;1.40;;;20.30;66.60;;;16.45;89.67;95864.69;5053143;28;20051;-48
2022/07/04 21:35:20;;;;;;;4.10;1.50;;;20.30;66.30;;;16.42;89.54;95868.75;5051868;28;20017;-47
2022/07/04 21:37:54;;;;;;;5.60;1.23;;;20.20;66.40;;;16.42;89.20;95868.75;5038023;28;20115;-50
2022/07/04 21:40:21;;;;;;;10.00;1.80;;;20.20;66.50;;;16.38;89.93;95881.19;5017970;28;20170;-48
2022/07/04 21:42:46;;;;;;;8.60;1.55;;;20.20;66.50;;;16.35;89.92;95876.41;5023582;28;20044;-49
2022/07/04 21:45:15;;;;;;;5.40;1.75;;;20.20;66.60;;;16.35;90.11;95876.41;5045263;28;20551;-47
2022/07/04 21:47:41;;;;;;;4.80;1.50;;;20.20;66.80;;;16.34;90.17;95877.50;5031484;28;20032;-53
2022/07/04 21:50:08;;;;;;;4.68;1.70;;;20.20;66.90;;;16.34;90.29;95886.38;5031654;28;20025;-49
2022/07/04 21:52:34;;;;;;;6.70;1.67;;;20.10;67.10;;;16.33;90.45;95882.09;5032759;28;20020;-48
2022/07/04 21:55:00;;;;;;;8.48;1.52;;;20.20;67.20;;;16.34;90.56;95886.38;5037728;28;20046;-47
2022/07/04 21:57:25;;;;;;;7.75;1.50;;;20.20;67.30;;;16.34;90.84;95883.69;5023287;28;20033;-51
2022/07/04 21:59:51;;;;;;;3.30;1.25;;;20.20;67.40;;;16.34;90.93;95885.56;5032855;28;20087;-48
2022/07/04 22:02:23;;;;;;;8.45;1.95;;;20.20;67.40;;;16.34;91.14;95890.94;5014722;28;20546;-52
2022/07/04 22:04:50;;;;;;;3.33;1.20;;;20.20;67.60;;;16.35;90.59;95887.16;5015027;28;20016;-46
2022/07/04 22:07:18;;;;;;;6.55;1.60;;;20.20;67.40;;;16.37;90.40;95885.78;5030844;28;20111;-48
2022/07/04 22:09:44;;;;;;;12.57;5.72;;;20.20;67.60;;;16.37;90.57;95882.28;5031363;28;20025;-47
2022/07/04 22:12:10;;;;;;;8.95;2.13;;;20.20;67.50;;;16.38;90.28;95887.38;5045222;28;20101;-50
2022/07/04 22:14:36;;;;;;;4.22;1.30;;;20.30;67.60;;;16.36;89.82;95883.41;5052272;28;20032;-48
